Time;durP1;ratioP1;P1;durP2;ratioP2;P2;SDS_P1;SDS_P2;PMS_P1;PMS_P2;Temp;Humidity;BMP_temperature;BMP_pressure;BME280_temperature;BME280_humidity;BME280_pressure;Samples;Min_cycle;Max_cycle;Signal;HPM_P1;HPM_P2
2021/12/23 00:01:12;;;;;;;;;11.25;9.75;;;;;15.14;38.16;101236.78;4939069;28;48358;-13
2021/12/23 00:03:37;;;;;;;;;14.50;10.00;;;;;15.13;37.98;101235.94;4939159;28;48339;-13
2021/12/23 00:06:02;;;;;;;;;8.50;7.00;;;;;15.14;38.04;101237.59;4956866;28;48610;-13
2021/12/23 00:08:28;;;;;;;;;9.25;9.25;;;;;15.13;38.04;101230.56;4923149;28;51195;-13
2021/12/23 00:10:53;;;;;;;;;14.75;10.75;;;;;15.10;37.98;101224.72;5147069;23;49239;-14
2021/12/23 00:13:19;;;;;;;;;11.50;9.75;;;;;15.09;37.99;101225.72;4917844;28;48255;-13
2021/12/23 00:24:01;;;;;;;;;8.50;8.25;;;;;15.08;37.95;101198.03;4917771;28;48381;-12
2021/12/23 00:26:27;;;;;;;;;10.50;9.00;;;;;14.97;37.98;101164.38;4917939;28;48196;-13
2021/12/23 00:28:53;;;;;;;;;12.00;10.25;;;;;15.08;38.08;101198.03;4900223;28;50431;-12
2021/12/23 00:31:18;;;;;;;;;12.00;8.25;;;;;15.09;38.04;101193.50;4916408;28;48250;-12
2021/12/23 00:33:44;;;;;;;;;11.00;9.75;;;;;14.99;37.98;101183.81;4917604;28;48168;-13
2021/12/23 00:36:11;;;;;;;;;11.75;9.75;;;;;15.06;38.09;101198.22;4917797;28;48530;-13
2021/12/23 00:38:42;;;;;;;;;10.00;9.50;;;;;15.09;38.19;101190.81;4916392;28;49341;-12
2021/12/23 00:41:08;;;;;;;;;9.50;8.25;;;;;15.06;38.19;101184.78;4917828;28;48133;-13
2021/12/23 00:43:34;;;;;;;;;9.50;8.00;;;;;15.04;38.13;101173.41;4917471;28;48380;-13
2021/12/23 00:46:00;;;;;;;;;8.50;8.50;;;;;15.06;38.13;101182.13;4917886;28;48137;-13
2021/12/23 00:48:25;;;;;;;;;10.00;8.75;;;;;15.02;38.08;101177.25;4917610;28;49005;-13
2021/12/23 00:50:51;;;;;;;;;10.00;10.00;;;;;15.08;38.15;101184.59;4916150;28;48197;-13
2021/12/23 00:53:19;;;;;;;;;10.00;8.00;;;;;15.07;38.19;101178.41;4917258;28;48458;-13
2021/12/23 00:55:49;;;;;;;;;7.25;7.25;;;;;15.08;38.10;101176.56;4916422;28;48758;-13
2021/12/23 00:58:14;;;;;;;;;11.00;11.00;;;;;15.05;38.20;101164.34;4917190;28;48941;-16
2021/12/23 01:00:40;;;;;;;;;11.00;9.00;;;;;15.04;38.09;101165.34;4915891;28;48193;-14
2021/12/23 01:03:06;;;;;;;;;12.00;9.25;;;;;15.05;38.08;101166.16;4917264;28;48301;-13
2021/12/23 01:05:32;;;;;;;;;11.25;8.75;;;;;15.05;38.10;101169.69;4917470;28;48718;-13
2021/12/23 01:07:57;;;;;;;;;15.75;9.75;;;;;15.02;38.16;101162.00;4916838;28;49253;-13
2021/12/23 01:10:24;;;;;;;;;8.50;8.50;;;;;14.94;38.13;101137.88;4924295;28;48447;-13
2021/12/23 01:12:56;;;;;;;;;11.00;10.00;;;;;15.05;38.13;101158.13;4936358;28;48270;-13
2021/12/23 01:18:14;;;;;;;;;10.75;9.25;;;;;15.02;38.09;101158.47;4921387;28;49305;-13
2021/12/23 01:20:52;;;;;;;;;9.75;7.75;;;;;14.99;38.12;101146.25;4936199;28;48219;-14
2021/12/23 01:23:19;;;;;;;;;8.50;8.00;;;;;15.03;38.17;101154.78;4920390;28;48371;-13
2021/12/23 01:25:45;;;;;;;;;9.00;9.00;;;;;15.02;38.06;101150.41;4918803;28;48540;-13
2021/12/23 01:28:10;;;;;;;;;10.50;7.25;;;;;14.99;38.12;101146.25;4918639;28;50055;-13
2021/12/23 01:30:37;;;;;;;;;11.25;11.00;;;;;15.01;38.00;101143.41;4918607;28;48304;-13
2021/12/23 01:33:03;;;;;;;;;8.75;8.75;;;;;14.92;38.10;101126.47;4936267;28;48263;-13
2021/12/23 01:35:29;;;;;;;;;10.25;10.25;;;;;14.99;38.18;101132.81;4935856;28;48530;-14
2021/12/23 01:37:54;;;;;;;;;9.25;9.25;;;;;14.95;38.17;101126.13;4918418;28;49734;-13
2021/12/23 01:40:20;;;;;;;;;10.25;10.25;;;;;14.91;38.08;101114.06;4935925;28;48291;-13
2021/12/23 01:42:46;;;;;;;;;10.00;8.25;;;;;14.98;38.08;101133.00;4935685;28;48406;-13
2021/12/23 01:45:14;;;;;;;;;8.25;8.00;;;;;14.98;38.07;101135.69;4935269;28;48633;-13
2021/12/23 01:47:40;;;;;;;;;8.25;8.25;;;;;14.99;38.19;101146.25;4918214;28;50436;-13
2021/12/23 01:50:06;;;;;;;;;11.00;8.00;;;;;14.98;38.21;101133.00;4935817;28;48207;-13
2021/12/23 01:52:31;;;;;;;;;10.25;10.00;;;;;15.00;38.14;101133.69;4935850;28;48263;-13
2021/12/23 01:54:57;;;;;;;;;10.25;10.25;;;;;15.00;38.25;101121.09;4935454;28;48547;-13
2021/12/23 01:57:23;;;;;;;;;7.50;7.00;;;;;15.01;38.16;101124.63;4918246;28;49249;-13
2021/12/23 01:59:48;;;;;;;;;9.00;8.25;;;;;14.99;38.14;101113.22;4935963;28;48290;-13
2021/12/23 02:02:14;;;;;;;;;12.75;10.00;;;;;14.98;38.02;101111.53;4935697;28;48243;-13
2021/12/23 02:04:40;;;;;;;;;10.25;10.00;;;;;14.98;37.97;101112.38;4935578;28;48176;-13
2021/12/23 02:07:05;;;;;;;;;11.75;8.75;;;;;14.98;38.06;101111.53;4918522;28;49498;-13
2021/12/23 02:09:31;;;;;;;;;9.00;8.00;;;;;14.87;38.24;101089.44;4935493;28;48200;-14
2021/12/23 02:11:57;;;;;;;;;7.50;7.50;;;;;14.95;38.04;101106.53;4935335;28;48300;-13
2021/12/23 02:14:23;;;;;;;;;9.25;7.75;;;;;14.95;38.09;101106.53;4918705;28;48297;-13
2021/12/23 02:16:48;;;;;;;;;10.25;8.25;;;;;14.95;37.97;101111.91;4917952;28;49096;-13
2021/12/23 02:19:16;;;;;;;;;9.25;9.25;;;;;14.95;38.03;101114.56;4902343;28;48339;-13
2021/12/23 02:21:42;;;;;;;;;9.25;7.75;;;;;14.95;38.12;101107.34;4918187;28;48381;-13
2021/12/23 02:24:08;;;;;;;;;7.25;7.25;;;;;14.96;37.99;101113.56;4935534;28;48244;-13
2021/12/23 02:26:54;;;;;;;;;8.00;8.00;;;;;14.96;38.06;101100.16;4901982;28;49513;-13
2021/12/23 02:29:19;;;;;;;;;8.00;8.00;;;;;14.95;38.13;101106.53;4935780;28;48234;-14
2021/12/23 02:31:48;;;;;;;;;10.00;9.50;;;;;14.95;38.09;101096.63;4918180;28;48369;-13
2021/12/23 02:34:14;;;;;;;;;9.75;9.75;;;;;14.95;37.94;101095.78;4933934;28;48691;-14
2021/12/23 02:36:40;;;;;;;;;12.25;10.25;;;;;14.93;38.09;101082.53;4935238;28;49566;-13
2021/12/23 02:39:06;;;;;;;;;13.00;9.00;;;;;14.92;38.11;101083.53;4935116;28;48467;-12
2021/12/23 02:41:31;;;;;;;;;11.00;8.75;;;;;14.94;38.01;101089.56;4917862;28;48439;-13
2021/12/23 02:43:57;;;;;;;;;8.75;7.75;;;;;14.97;38.01;101085.72;4918152;28;48386;-13
2021/12/23 02:46:24;;;;;;;;;8.00;7.50;;;;;14.92;38.10;101081.72;4917585;28;49637;-13
2021/12/23 02:48:49;;;;;;;;;10.75;8.50;;;;;14.90;37.90;101081.06;4934965;28;48266;-13
2021/12/23 02:51:16;;;;;;;;;9.25;9.00;;;;;14.92;38.20;101087.09;4935055;28;48227;-12
2021/12/23 02:53:42;;;;;;;;;10.25;10.00;;;;;14.94;38.20;101080.69;4935055;28;48200;-13
2021/12/23 02:56:09;;;;;;;;;9.75;9.00;;;;;14.94;37.70;101084.22;4935548;28;49152;-13
2021/12/23 02:58:35;;;;;;;;;15.50;8.50;;;;;14.94;37.98;101086.06;4937995;28;48374;-13
2021/12/23 03:01:02;;;;;;;;;7.75;7.75;;;;;14.80;38.09;101060.78;5171631;23;48253;-13
2021/12/23 03:03:27;;;;;;;;;13.25;10.00;;;;;14.92;38.15;101078.19;4958016;28;48196;-13
2021/12/23 03:05:54;;;;;;;;;9.00;9.00;;;;;14.93;37.95;101082.53;4940145;28;49852;-13
2021/12/23 03:08:40;;;;;;;;;8.75;8.75;;;;;14.94;38.13;101072.66;4940291;28;48392;-13
2021/12/23 03:11:07;;;;;;;;;7.75;7.75;;;;;14.92;38.06;101076.34;4957708;28;48309;-13
2021/12/23 03:13:33;;;;;;;;;11.00;8.50;;;;;14.91;38.07;101074.69;4940208;28;48734;-13
2021/12/23 03:15:59;;;;;;;;;6.75;6.75;;;;;14.93;38.03;101069.13;4956980;28;49034;-14
2021/12/23 03:18:25;;;;;;;;;9.75;8.50;;;;;14.91;37.91;101060.41;4939977;28;48423;-13
2021/12/23 03:20:50;;;;;;;;;9.00;8.00;;;;;14.89;38.06;101059.75;4940314;28;48426;-13
2021/12/23 03:23:16;;;;;;;;;9.75;9.25;;;;;14.92;38.06;101065.63;4940238;28;48311;-13
2021/12/23 03:25:41;;;;;;;;;13.00;9.75;;;;;14.91;38.07;101060.41;4957219;28;48978;-14
2021/12/23 03:28:07;;;;;;;;;9.25;8.50;;;;;14.89;38.14;101049.88;4957408;28;48167;-13
2021/12/23 03:30:33;;;;;;;;;10.75;7.50;;;;;14.90;38.16;101051.53;4939605;28;48336;-13
2021/12/23 03:32:58;;;;;;;;;11.00;11.00;;;;;14.89;38.03;101051.69;4939866;28;48179;-13
2021/12/23 03:35:24;;;;;;;;;11.00;9.00;;;;;14.91;38.21;101052.34;4939505;28;50489;-13
2021/12/23 03:37:49;;;;;;;;;11.00;8.00;;;;;14.89;37.90;101046.34;4957279;28;48256;-13
2021/12/23 03:40:15;;;;;;;;;8.00;7.00;;;;;14.89;38.05;101047.19;4957142;28;48240;-13
2021/12/23 03:42:41;;;;;;;;;7.50;4.00;;;;;14.88;38.04;101040.16;4956961;28;48600;-13
2021/12/23 03:45:08;;;;;;;;;10.00;9.25;;;;;14.87;38.09;101033.09;4955346;28;49853;-13
2021/12/23 03:47:35;;;;;;;;;11.25;10.50;;;;;14.92;38.17;101036.09;4939695;28;48406;-13
2021/12/23 03:50:00;;;;;;;;;8.00;8.00;;;;;14.89;38.04;101031.09;4956502;28;48338;-13
2021/12/23 03:52:26;;;;;;;;;13.00;8.50;;;;;14.91;38.03;101033.56;4957219;28;48689;-13
2021/12/23 03:54:51;;;;;;;;;7.75;7.50;;;;;14.79;38.03;101022.41;5185440;23;50084;-14
2021/12/23 03:57:17;;;;;;;;;8.00;7.75;;;;;14.90;38.08;101018.50;4920592;28;48253;-15
2021/12/23 03:59:43;;;;;;;;;14.00;12.50;;;;;14.84;38.05;101014.69;4937827;28;48350;-13
2021/12/23 04:02:08;;;;;;;;;9.75;8.25;;;;;14.89;37.96;101012.31;4937653;28;48235;-13
2021/12/23 04:04:34;;;;;;;;;10.50;9.75;;;;;14.78;38.09;100993.91;4920099;28;48540;-13
2021/12/23 04:07:00;;;;;;;;;8.00;8.00;;;;;14.88;38.11;101017.81;4936645;28;48225;-14
2021/12/23 04:09:25;;;;;;;;;12.25;11.25;;;;;14.89;38.03;101009.63;4937556;28;48314;-13
2021/12/23 04:11:51;;;;;;;;;9.25;9.00;;;;;14.87;38.10;101008.97;4937509;28;48539;-14
2021/12/23 04:14:16;;;;;;;;;10.25;10.00;;;;;14.86;38.30;100999.25;4936890;28;49340;-14
2021/12/23 04:16:42;;;;;;;;;9.00;9.00;;;;;14.87;38.06;101003.59;4919565;28;48157;-14
2021/12/23 04:19:10;;;;;;;;;14.75;10.00;;;;;14.89;38.05;101001.56;4920082;28;48164;-14
2021/12/23 04:21:36;;;;;;;;;12.25;11.50;;;;;14.86;38.09;100991.19;4920601;28;48299;-14
2021/12/23 04:24:02;;;;;;;;;8.75;8.75;;;;;14.87;38.02;100990.19;4936807;28;50310;-13
2021/12/23 04:26:28;;;;;;;;;13.75;10.25;;;;;14.76;38.11;100967.25;4936985;28;48294;-14
2021/12/23 04:28:53;;;;;;;;;16.50;12.25;;;;;14.88;38.16;100982.94;4937285;28;48348;-14
2021/12/23 04:31:20;;;;;;;;;9.25;8.50;;;;;14.80;37.79;100966.91;4937280;28;48152;-13
2021/12/23 04:33:47;;;;;;;;;10.25;8.00;;;;;14.80;38.12;100973.13;4937135;28;49217;-14
2021/12/23 04:36:13;;;;;;;;;14.50;10.50;;;;;14.89;37.98;100979.25;4937089;28;48285;-13
2021/12/23 04:38:39;;;;;;;;;8.75;8.75;;;;;14.87;38.06;100975.91;4919775;28;48297;-13
2021/12/23 04:41:05;;;;;;;;;11.75;8.50;;;;;14.88;38.02;100974.91;4937045;28;48342;-13
2021/12/23 04:43:31;;;;;;;;;10.50;9.50;;;;;14.90;37.89;100973.72;4919326;28;48226;-13
2021/12/23 04:45:56;;;;;;;;;11.50;10.50;;;;;14.88;38.02;100966.84;4919752;28;48458;-13
2021/12/23 04:48:22;;;;;;;;;11.25;10.00;;;;;14.91;37.91;100975.41;4936563;28;48345;-13
2021/12/23 04:50:47;;;;;;;;;10.75;9.75;;;;;14.73;38.03;100943.47;4919410;28;48635;-13
2021/12/23 04:53:12;;;;;;;;;10.50;9.00;;;;;14.91;38.01;100972.72;4936587;28;49088;-14
2021/12/23 04:55:38;;;;;;;;;12.00;10.25;;;;;14.94;37.97;100970.69;4936048;28;48321;-13
2021/12/23 04:58:03;;;;;;;;;12.25;12.25;;;;;14.91;37.98;100967.34;4936977;28;48215;-13
2021/12/23 05:00:29;;;;;;;;;11.75;10.75;;;;;14.87;37.91;100957.13;4936481;28;48293;-13
2021/12/23 05:02:54;;;;;;;;;8.00;8.00;;;;;14.94;37.95;100970.69;4919355;28;50170;-13
2021/12/23 05:05:20;;;;;;;;;15.50;11.00;;;;;14.94;38.13;100968.81;4919398;28;48423;-13
2021/12/23 05:07:46;;;;;;;;;11.00;9.50;;;;;14.93;38.21;100956.41;4936333;28;48256;-12
2021/12/23 05:10:12;;;;;;;;;13.00;10.25;;;;;14.88;37.94;100950.75;4919437;28;48535;-13
2021/12/23 05:12:43;;;;;;;;;11.25;11.00;;;;;15.00;37.92;100965.44;4936092;28;49338;-13
2021/12/23 05:15:10;;;;;;;;;8.50;8.50;;;;;15.03;38.08;100969.59;4919917;28;48231;-12
2021/12/23 05:17:36;;;;;;;;;10.00;8.50;;;;;15.03;38.05;100965.06;4936033;28;48171;-13
2021/12/23 05:20:01;;;;;;;;;10.25;8.50;;;;;15.02;37.92;100952.66;4935205;28;48163;-13
2021/12/23 05:22:27;;;;;;;;;10.00;9.00;;;;;15.05;37.84;100954.16;4936178;28;48267;-13
2021/12/23 05:24:53;;;;;;;;;14.50;11.00;;;;;15.07;37.85;100944.91;4936238;28;48161;-13
2021/12/23 05:27:18;;;;;;;;;15.00;12.75;;;;;15.12;37.80;100938.19;4936546;28;48379;-13
2021/12/23 05:29:44;;;;;;;;;10.75;9.50;;;;;15.14;37.95;100941.50;4936403;28;48096;-13
2021/12/23 05:32:09;;;;;;;;;12.25;9.00;;;;;15.16;37.86;100932.25;4935681;28;49182;-13
2021/12/23 05:34:35;;;;;;;;;13.75;13.25;;;;;15.16;37.67;100934.94;4935828;28;48347;-13
2021/12/23 05:37:00;;;;;;;;;11.75;9.25;;;;;15.21;37.74;100931.72;4936039;28;48397;-13
2021/12/23 05:39:26;;;;;;;;;9.75;9.00;;;;;15.24;37.82;100931.38;4919108;28;48256;-13
2021/12/23 05:41:51;;;;;;;;;9.50;8.50;;;;;15.24;37.65;100925.16;4935635;28;50042;-12
2021/12/23 05:46:53;;;;;;;;;9.50;9.00;;;;;15.18;37.72;100908.75;5117038;23;48607;-14
2021/12/23 05:49:18;;;;;;;;;11.50;11.00;;;;;15.35;37.70;100928.25;4938204;28;48585;-13
2021/12/23 05:51:44;;;;;;;;;12.00;11.00;;;;;15.35;37.50;100922.88;4955348;28;49224;-13
2021/12/23 05:54:09;;;;;;;;;16.50;10.75;;;;;15.33;37.39;100905.28;4955159;28;48154;-13
2021/12/23 05:56:35;;;;;;;;;9.25;9.25;;;;;15.43;37.36;100921.13;4955195;28;48293;-14
2021/12/23 05:59:00;;;;;;;;;11.00;9.75;;;;;15.43;37.55;100921.13;4955135;28;48170;-14
2021/12/23 06:01:26;;;;;;;;;15.75;11.25;;;;;15.48;37.51;100930.31;4937693;28;51434;-13
2021/12/23 06:03:52;;;;;;;;;12.25;10.50;;;;;15.47;37.27;100922.41;4937620;28;48464;-14
2021/12/23 06:06:18;;;;;;;;;11.00;9.50;;;;;15.53;37.35;100921.69;4937965;28;48253;-13
2021/12/23 06:08:43;;;;;;;;;16.25;14.00;;;;;15.52;37.45;100920.88;5190811;23;48634;-14
2021/12/23 06:11:09;;;;;;;;;10.50;10.50;;;;;15.55;37.30;100922.34;4974157;28;49073;-14
2021/12/23 06:13:35;;;;;;;;;11.50;10.50;;;;;15.58;37.24;100923.84;4957054;28;48251;-13
2021/12/23 06:16:00;;;;;;;;;11.00;9.50;;;;;15.58;37.22;100915.78;4957077;28;48282;-13
2021/12/23 06:18:26;;;;;;;;;12.50;10.50;;;;;15.64;37.30;100931.97;4974413;28;48731;-13
2021/12/23 06:20:51;;;;;;;;;10.00;10.00;;;;;15.64;37.18;100923.09;4956427;28;50351;-14
2021/12/23 06:23:17;;;;;;;;;15.25;11.25;;;;;15.66;37.25;100921.06;4973870;28;48247;-13
2021/12/23 06:25:43;;;;;;;;;15.75;13.00;;;;;15.69;37.01;100919.84;4956851;28;48360;-13
2021/12/23 06:28:08;;;;;;;;;17.75;12.75;;;;;15.70;37.19;100925.06;4974188;28;48614;-13
2021/12/23 06:30:34;;;;;;;;;9.50;9.50;;;;;15.71;37.22;100920.50;4975108;28;48998;-13
2021/12/23 06:33:00;;;;;;;;;9.00;9.00;;;;;15.71;36.98;100920.50;4959834;28;48313;-13
2021/12/23 06:35:27;;;;;;;;;12.75;11.50;;;;;15.76;37.08;100918.09;4944140;28;48415;-13
2021/12/23 06:37:52;;;;;;;;;15.75;14.50;;;;;15.76;36.92;100928.84;4960081;28;48219;-13
2021/12/23 06:40:18;;;;;;;;;13.25;12.25;;;;;15.76;36.95;100929.69;4977397;28;48858;-13
2021/12/23 06:42:43;;;;;;;;;11.00;11.00;;;;;15.79;36.90;100936.53;4977406;28;48345;-13
2021/12/23 06:45:09;;;;;;;;;10.75;10.75;;;;;15.80;36.86;100939.06;4977224;28;48308;-13
2021/12/23 06:47:35;;;;;;;;;11.25;10.75;;;;;15.74;36.86;100926.38;4960016;28;48675;-13
2021/12/23 06:50:01;;;;;;;;;10.75;9.50;;;;;15.79;36.92;100921.28;4976990;28;49308;-13
2021/12/23 06:52:26;;;;;;;;;12.00;12.00;;;;;15.83;37.01;100926.28;4943732;28;48533;-13
2021/12/23 06:54:54;;;;;;;;;15.00;12.50;;;;;15.85;36.84;100924.25;4943521;28;48399;-12
2021/12/23 06:57:20;;;;;;;;;11.50;10.50;;;;;15.85;36.90;100918.88;4977631;28;48094;-13
2021/12/23 06:59:46;;;;;;;;;10.00;10.00;;;;;15.84;36.78;100917.19;4976960;28;48325;-14
2021/12/23 07:02:11;;;;;;;;;11.75;11.75;;;;;15.81;36.73;100919.22;4976623;28;48218;-13
2021/12/23 07:04:39;;;;;;;;;12.75;12.00;;;;;15.83;36.89;100927.09;4976781;28;48223;-14
2021/12/23 07:07:09;;;;;;;;;13.00;10.00;;;;;15.80;36.79;100917.56;4977391;28;48633;-14
2021/12/23 07:09:36;;;;;;;;;11.75;10.75;;;;;15.82;36.87;100925.44;4976428;28;48229;-14
2021/12/23 07:12:03;;;;;;;;;12.50;11.00;;;;;15.85;36.85;100929.63;4959456;28;48246;-14
2021/12/23 07:14:28;;;;;;;;;10.25;10.25;;;;;15.84;36.78;100926.06;4977146;28;48486;-13
2021/12/23 07:16:54;;;;;;;;;14.00;13.50;;;;;15.87;36.80;100938.34;4977368;28;48213;-13
2021/12/23 07:21:54;;;;;;;;;12.50;12.00;;;;;15.85;36.90;100932.28;4777359;26;48087;-13
2021/12/23 07:24:20;;;;;;;;;9.50;9.50;;;;;15.87;36.62;100943.72;4867134;29;48149;-14
2021/12/23 07:26:46;;;;;;;;;18.75;13.25;;;;;15.82;37.00;100941.53;4882508;29;48660;-14
2021/12/23 07:29:12;;;;;;;;;10.75;10.25;;;;;15.82;36.77;100941.53;4882354;29;48828;-14
2021/12/23 07:31:37;;;;;;;;;11.00;10.00;;;;;15.80;36.92;100951.66;4899556;29;48245;-13
2021/12/23 07:34:03;;;;;;;;;13.25;11.00;;;;;15.79;36.86;100948.13;4899774;29;48272;-16
2021/12/23 07:36:28;;;;;;;;;13.00;10.75;;;;;15.78;36.70;100951.00;4882277;29;48732;-14
2021/12/23 07:38:55;;;;;;;;;12.75;11.00;;;;;15.76;36.83;100939.59;4851054;29;50466;-14
2021/12/23 07:41:20;;;;;;;;;12.00;10.25;;;;;15.74;37.02;100941.63;4898757;29;48328;-12
2021/12/23 07:46:34;;;;;;;;;12.25;11.50;;;;;15.73;37.30;100943.50;4885274;29;48664;-14
2021/12/23 07:48:59;;;;;;;;;10.50;10.50;;;;;15.74;37.18;100941.63;4882156;29;50254;-14
2021/12/23 07:51:25;;;;;;;;;11.50;11.50;;;;;15.76;37.27;100955.72;4882254;29;48239;-19
2021/12/23 07:53:51;;;;;;;;;12.25;11.25;;;;;15.74;37.20;100961.28;4899133;29;48313;-13
2021/12/23 07:56:16;;;;;;;;;10.00;8.75;;;;;15.73;37.20;100961.47;4899442;29;48268;-13
2021/12/23 07:58:42;;;;;;;;;9.00;9.00;;;;;15.69;37.29;100952.94;4881875;29;48409;-13
2021/12/23 08:01:07;;;;;;;;;11.50;11.00;;;;;15.69;37.18;100946.72;4882302;29;48370;-13
2021/12/23 08:03:33;;;;;;;;;9.00;9.00;;;;;15.58;37.42;100934.59;4899196;29;48372;-13
2021/12/23 08:05:59;;;;;;;;;13.50;9.00;;;;;15.65;37.21;100948.94;4899153;29;48253;-13
2021/12/23 08:08:24;;;;;;;;;11.75;11.25;;;;;15.66;37.49;100943.38;4898949;29;49315;-19
2021/12/23 08:10:50;;;;;;;;;16.00;11.75;;;;;15.61;37.47;100951.16;4899031;29;48380;-13
2021/12/23 08:13:16;;;;;;;;;8.75;8.75;;;;;15.63;37.44;100935.69;4899144;29;48242;-15
2021/12/23 08:15:43;;;;;;;;;8.75;8.75;;;;;15.61;37.84;100937.72;4866628;29;48657;-13
2021/12/23 08:18:08;;;;;;;;;10.00;9.00;;;;;15.60;37.71;100937.91;4898448;28;49022;-14
2021/12/23 08:20:34;;;;;;;;;10.00;8.75;;;;;15.64;37.99;100939.22;4888600;28;48475;-14
2021/12/23 08:22:59;;;;;;;;;11.50;11.00;;;;;15.65;38.07;100943.59;4900803;28;48259;-15
2021/12/23 08:25:25;;;;;;;;;15.00;9.00;;;;;15.63;38.00;100942.94;4917809;28;48178;-15
2021/12/23 08:27:51;;;;;;;;;11.50;9.00;;;;;15.59;38.28;100938.94;4917400;28;48950;-16
2021/12/23 08:30:18;;;;;;;;;11.25;10.00;;;;;15.63;38.11;100941.06;4900895;28;48236;-15
2021/12/23 08:32:44;;;;;;;;;8.00;8.00;;;;;15.59;38.21;100939.75;4917783;28;48436;-14
2021/12/23 08:35:10;;;;;;;;;11.50;10.00;;;;;15.59;38.22;100936.25;4917815;28;48625;-14
2021/12/23 08:37:37;;;;;;;;;8.25;8.00;;;;;15.59;38.38;100937.06;4917773;28;48938;-15
2021/12/23 08:40:03;;;;;;;;;11.75;11.00;;;;;15.59;38.36;100936.25;4917223;28;48367;-14
2021/12/23 08:42:29;;;;;;;;;8.00;6.50;;;;;15.57;38.35;100932.91;4917256;28;48345;-14
2021/12/23 08:44:55;;;;;;;;;15.75;12.00;;;;;15.45;38.45;100916.44;4917343;28;48633;-14
2021/12/23 08:47:21;;;;;;;;;11.00;9.75;;;;;15.56;38.46;100937.44;4900255;28;49924;-14
2021/12/23 08:49:46;;;;;;;;;11.25;11.25;;;;;15.51;38.31;100924.56;4917497;28;48169;-15
2021/12/23 08:52:12;;;;;;;;;8.50;8.00;;;;;15.49;38.39;100925.75;4900241;28;48215;-14
2021/12/23 08:54:38;;;;;;;;;12.75;9.50;;;;;15.49;38.21;100928.44;4917650;28;48203;-14
2021/12/23 08:57:05;;;;;;;;;9.50;9.50;;;;;15.47;38.29;100930.47;4900211;28;51497;-14
2021/12/23 08:59:31;;;;;;;;;6.25;6.25;;;;;15.44;38.41;100928.19;4917337;28;48287;-15
2021/12/23 09:01:56;;;;;;;;;8.75;8.25;;;;;15.37;38.40;100928.06;4916952;28;48266;-16
2021/12/23 09:04:22;;;;;;;;;12.50;11.25;;;;;15.37;38.42;100928.06;4917082;28;48183;-14
2021/12/23 09:06:47;;;;;;;;;11.50;10.00;;;;;15.25;38.36;100910.72;4899848;28;49830;-14
2021/12/23 09:09:13;;;;;;;;;20.25;15.00;;;;;15.32;38.52;100919.72;4917304;28;48229;-16
2021/12/23 09:11:39;;;;;;;;;14.75;13.50;;;;;15.29;38.37;100925.44;4900294;28;48295;-15
2021/12/23 09:14:04;;;;;;;;;13.75;10.00;;;;;15.24;38.47;100930.53;4917110;28;48140;-14
2021/12/23 09:16:30;;;;;;;;;14.50;11.50;;;;;15.21;38.53;100934.41;4916871;28;48285;-16
2021/12/23 09:18:56;;;;;;;;;15.00;10.75;;;;;15.17;38.49;100927.75;4899918;28;48332;-14
2021/12/23 09:21:21;;;;;;;;;11.75;9.75;;;;;15.16;38.69;100937.63;4883855;28;48302;-14
2021/12/23 09:23:48;;;;;;;;;17.75;10.00;;;;;15.16;38.73;100932.25;4916800;28;48651;-18
2021/12/23 09:26:13;;;;;;;;;11.25;11.00;;;;;15.14;38.84;100931.59;4916673;28;48919;-21
2021/12/23 09:28:56;;;;;;;;;12.25;11.25;;;;;15.14;38.76;100928.09;4916896;28;48362;-20
2021/12/23 09:34:09;;;;;;;;;10.25;10.25;;;;;15.14;39.00;100926.22;4936040;28;48154;-20
2021/12/23 09:36:35;;;;;;;;;13.25;10.00;;;;;15.12;38.77;100922.88;4918487;28;50299;-20
2021/12/23 09:39:00;;;;;;;;;9.50;9.50;;;;;15.12;38.99;100930.94;4918810;28;48684;-21
2021/12/23 09:41:26;;;;;;;;;9.00;8.75;;;;;15.08;38.84;100918.91;4902680;28;48328;-20
2021/12/23 09:43:52;;;;;;;;;12.00;9.25;;;;;15.09;38.96;100927.81;4903380;28;48123;-18
2021/12/23 09:46:20;;;;;;;;;14.00;13.00;;;;;15.09;38.85;100925.94;4902907;28;48401;-18
2021/12/23 09:48:46;;;;;;;;;8.75;8.75;;;;;15.08;38.83;100924.25;4935961;28;48335;-18
2021/12/23 09:51:14;;;;;;;;;13.25;10.00;;;;;15.08;38.89;100918.91;4902544;28;48301;-19
2021/12/23 09:53:42;;;;;;;;;13.00;10.50;;;;;15.05;38.97;100921.94;4935939;28;48614;-19
2021/12/23 09:56:07;;;;;;;;;14.00;11.00;;;;;15.07;39.00;100922.59;4935442;28;49216;-16
2021/12/23 09:58:35;;;;;;;;;14.25;11.00;;;;;14.92;38.94;100875.09;5170175;23;48628;-16
2021/12/23 10:01:01;;;;;;;;;10.50;8.00;;;;;15.19;39.35;100910.41;4919280;28;48208;-18
2021/12/23 10:03:27;;;;;;;;;10.50;10.50;;;;;15.29;39.69;100909.34;4903080;28;48152;-19
2021/12/23 10:05:53;;;;;;;;;12.75;11.00;;;;;15.40;39.41;100913.44;4937235;28;48966;-20
2021/12/23 10:08:19;;;;;;;;;12.00;12.00;;;;;15.43;39.53;100910.41;4938934;28;48239;-19
2021/12/23 10:10:51;;;;;;;;;11.25;10.50;;;;;15.46;39.57;100900.13;4939373;28;48398;-22
2021/12/23 10:38:44;;;;;;;;;5.25;5.25;;;;;16.12;39.73;100881.59;4957697;28;48631;-13
2021/12/23 10:41:29;;;;;;;;;7.50;5.75;;;;;16.18;39.49;100872.78;4957703;28;48411;-16
2021/12/23 10:43:59;;;;;;;;;10.00;6.00;;;;;16.24;39.72;100864.81;4940302;28;48360;-13
2021/12/23 10:46:27;;;;;;;;;10.00;8.00;;;;;16.30;39.72;100868.59;4958097;28;48691;-14
2021/12/23 11:00:37;;;;;;;;;10.50;10.00;;;;;16.55;39.02;100852.09;4938295;28;50400;-14
2021/12/23 11:03:30;;;;;;;;;12.50;10.50;;;;;16.57;39.24;100852.72;4938111;28;48248;-15
2021/12/23 11:06:07;;;;;;;;;8.50;8.00;;;;;16.57;38.84;100839.28;4938324;28;48124;-15
2021/12/23 11:11:38;;;;;;;;;15.75;6.00;;;;;16.59;38.74;100845.31;4937897;28;48994;-14
